createdAt,value
2022-11-11T00:00:50.444Z,97386.78
2022-11-11T00:03:35.947Z,97383.69
2022-11-11T00:06:21.278Z,97385.38
2022-11-11T00:09:06.786Z,97388.56
2022-11-11T00:11:52.629Z,97383.22
2022-11-11T00:14:37.915Z,97384.41
2022-11-11T00:17:41.982Z,97396.59
2022-11-11T00:20:46.048Z,97411.06
2022-11-11T00:23:50.391Z,97414.47
2022-11-11T00:26:40.388Z,97414.50
2022-11-11T00:29:26.287Z,97415.56
2022-11-11T00:32:23.631Z,97415.47
2022-11-11T00:35:28.486Z,97426.69
2022-11-11T00:38:33.805Z,97435.59
2022-11-11T00:41:21.204Z,97447.78
2022-11-11T00:44:06.845Z,97447.88
2022-11-11T00:47:10.865Z,97449.69
2022-11-11T00:50:15.000Z,97450.84
2022-11-11T00:53:01.021Z,97461.03
2022-11-11T00:55:46.350Z,97459.25
2022-11-11T00:58:31.611Z,97452.28
2022-11-11T01:01:17.498Z,97449.41
2022-11-11T01:04:03.495Z,97451.00
2022-11-11T01:06:49.338Z,97447.53
2022-11-11T01:09:34.603Z,97451.09
2022-11-11T01:12:20.199Z,97446.94
2022-11-11T01:15:06.347Z,97450.28
2022-11-11T01:17:51.868Z,97455.47
2022-11-11T01:20:38.495Z,97446.13
2022-11-11T01:23:24.012Z,97450.63
2022-11-11T01:26:31.637Z,97454.31
2022-11-11T01:29:17.230Z,97459.50
2022-11-11T01:32:02.619Z,97466.84
2022-11-11T01:34:47.994Z,97463.41
2022-11-11T01:37:39.167Z,97467.78
2022-11-11T01:40:24.847Z,97458.22
2022-11-11T01:43:13.008Z,97457.63
2022-11-11T01:46:00.925Z,97450.97
2022-11-11T01:49:08.191Z,97443.88
2022-11-11T01:52:02.793Z,97448.25
2022-11-11T01:55:08.027Z,97454.31
2022-11-11T01:58:15.724Z,97451.19
2022-11-11T02:01:02.679Z,97446.94
2022-11-11T02:04:08.818Z,97453.13
2022-11-11T02:06:58.056Z,97452.88
2022-11-11T02:09:47.083Z,97454.53
2022-11-11T02:12:51.415Z,97459.50
2022-11-11T02:15:38.434Z,97452.63
2022-11-11T02:18:24.365Z,97456.19
2022-11-11T02:21:20.638Z,97451.91
2022-11-11T02:24:10.152Z,97452.88
2022-11-11T02:26:58.675Z,97449.31
2022-11-11T02:29:48.438Z,97449.09
2022-11-11T02:32:34.291Z,97460.31
2022-11-11T02:35:26.024Z,97455.03
2022-11-11T02:38:12.388Z,97439.47
2022-11-11T02:41:16.416Z,97453.34
2022-11-11T02:44:02.198Z,97442.00
2022-11-11T02:46:47.328Z,97428.97
2022-11-11T02:49:32.839Z,97443.63
2022-11-11T02:52:17.973Z,97441.88
2022-11-11T02:55:04.300Z,97433.91
2022-11-11T02:57:50.170Z,97433.69
2022-11-11T03:00:35.208Z,97434.41
2022-11-11T03:03:20.800Z,97441.97
2022-11-11T03:06:06.396Z,97432.25
2022-11-11T03:08:52.029Z,97432.97
2022-11-11T03:11:38.578Z,97435.47
2022-11-11T03:14:24.640Z,97434.63
2022-11-11T03:17:29.361Z,97437.25
2022-11-11T03:20:37.196Z,97448.47
2022-11-11T03:23:22.863Z,97446.72
2022-11-11T03:26:09.175Z,97447.41
2022-11-11T03:28:54.847Z,97452.41
2022-11-11T03:31:40.381Z,97457.59
2022-11-11T03:34:25.719Z,97461.75
2022-11-11T03:37:31.062Z,97462.59
2022-11-11T03:40:16.269Z,97462.25
2022-11-11T03:43:04.964Z,97464.00
2022-11-11T03:45:54.849Z,97470.88
2022-11-11T03:48:40.260Z,97476.09
2022-11-11T03:51:25.632Z,97468.97
2022-11-11T03:54:10.904Z,97473.97
2022-11-11T03:57:18.978Z,97470.38
2022-11-11T04:00:12.249Z,97466.16
2022-11-11T04:03:25.803Z,97462.56
2022-11-11T04:06:30.110Z,97471.47
2022-11-11T04:09:34.346Z,97477.75
2022-11-11T04:12:19.974Z,97473.59
2022-11-11T04:15:23.910Z,97471.00
2022-11-11T04:18:09.519Z,97471.09
2022-11-11T04:21:23.740Z,97471.22
2022-11-11T04:24:43.377Z,97476.31
2022-11-11T04:27:28.497Z,97478.69
2022-11-11T04:30:13.686Z,97475.50
2022-11-11T04:32:58.996Z,97472.53
2022-11-11T04:35:49.435Z,97471.44
2022-11-11T04:38:53.456Z,97474.91
2022-11-11T04:42:01.752Z,97473.47
2022-11-11T04:45:02.830Z,97473.72
2022-11-11T04:48:10.856Z,97473.72
2022-11-11T04:50:57.206Z,97464.13
2022-11-11T04:53:42.537Z,97477.28
2022-11-11T04:56:46.447Z,97474.53
2022-11-11T04:59:31.968Z,97474.31
2022-11-11T05:02:36.030Z,97467.31
2022-11-11T05:05:23.148Z,97468.38
2022-11-11T05:08:27.292Z,97466.59
2022-11-11T05:11:12.782Z,97462.22
2022-11-11T05:14:18.879Z,97463.31
2022-11-11T05:17:23.255Z,97468.53
2022-11-11T05:20:28.463Z,97462.38
2022-11-11T05:23:13.590Z,97470.63
2022-11-11T05:25:59.017Z,97458.44
2022-11-11T05:28:44.475Z,97453.25
2022-11-11T05:31:30.418Z,97446.81
2022-11-11T05:34:15.663Z,97445.53
2022-11-11T05:37:01.242Z,97450.16
2022-11-11T05:39:46.783Z,97444.94
2022-11-11T05:42:32.173Z,97446.94
2022-11-11T05:45:17.846Z,97446.00
2022-11-11T05:48:03.710Z,97453.13
2022-11-11T05:50:48.895Z,97450.75
2022-11-11T05:53:34.535Z,97454.75
2022-11-11T05:56:20.079Z,97454.53
2022-11-11T05:59:06.597Z,97466.47
2022-11-11T06:01:52.134Z,97468.84
2022-11-11T06:04:37.765Z,97468.84
2022-11-11T06:07:23.191Z,97475.84
2022-11-11T06:10:28.179Z,97473.94
2022-11-11T06:13:15.104Z,97476.31
2022-11-11T06:16:01.092Z,97486.63
2022-11-11T06:18:46.937Z,97486.38
2022-11-11T06:21:52.717Z,97483.56
2022-11-11T06:24:38.108Z,97474.66
2022-11-11T06:27:23.374Z,97484.38
2022-11-11T06:30:38.203Z,97487.69
2022-11-11T06:33:14.537Z,97487.78
2022-11-11T06:35:59.973Z,97485.44
2022-11-11T06:38:45.659Z,97485.31
2022-11-11T06:41:31.394Z,97490.75
2022-11-11T06:44:16.870Z,97482.84
2022-11-11T06:47:02.216Z,97481.78
2022-11-11T06:49:47.528Z,97484.25
2022-11-11T06:52:33.361Z,97480.81
2022-11-11T06:55:19.168Z,97482.50
2022-11-11T06:58:16.418Z,97494.56
2022-11-11T07:01:05.096Z,97489.38
2022-11-11T07:03:50.374Z,97495.75
2022-11-11T07:06:35.900Z,97485.09
2022-11-11T07:09:23.495Z,97483.91
2022-11-11T07:12:09.200Z,97499.19
2022-11-11T07:14:54.810Z,97502.38
2022-11-11T07:17:40.129Z,97495.63
2022-11-11T07:20:25.453Z,97488.16
2022-11-11T07:23:10.864Z,97486.72
2022-11-11T07:25:56.226Z,97487.91
2022-11-11T07:28:42.350Z,97481.25
2022-11-11T07:31:28.027Z,97479.94
2022-11-11T07:34:13.504Z,97486.69
2022-11-11T07:36:59.150Z,97489.06
2022-11-11T07:39:44.676Z,97499.03
2022-11-11T07:42:31.863Z,97497.84
2022-11-11T07:45:17.569Z,97492.34
2022-11-11T07:48:03.183Z,97486.75
2022-11-11T07:50:48.482Z,97498.75
2022-11-11T07:53:33.756Z,97494.13
2022-11-11T07:56:19.076Z,97489.72
2022-11-11T07:59:04.539Z,97497.03
2022-11-11T08:01:50.045Z,97500.25
2022-11-11T08:04:35.450Z,97502.38
2022-11-11T08:07:23.285Z,97499.38
2022-11-11T08:10:10.013Z,97507.78
2022-11-11T08:13:13.880Z,97510.97
2022-11-11T08:15:59.019Z,97509.66
2022-11-11T08:18:44.398Z,97502.41
2022-11-11T08:21:29.834Z,97513.31
2022-11-11T08:25:01.679Z,97514.69
2022-11-11T08:27:21.849Z,97534.03
2022-11-11T08:30:09.391Z,97537.91
2022-11-11T08:33:32.258Z,97538.34
2022-11-11T08:36:20.990Z,97545.44
2022-11-11T08:39:07.537Z,97554.41
2022-11-11T08:41:53.623Z,97555.31
2022-11-11T08:44:39.176Z,97559.06
2022-11-11T08:47:25.104Z,97567.94
2022-11-11T08:50:11.100Z,97563.00
2022-11-11T08:52:57.250Z,97564.19
2022-11-11T08:55:42.658Z,97573.31
2022-11-11T08:58:28.003Z,97583.97
2022-11-11T09:01:14.821Z,97592.94
2022-11-11T09:04:16.707Z,97600.03
2022-11-11T09:07:07.087Z,97586.72
2022-11-11T09:09:52.750Z,97586.75
2022-11-11T09:12:38.146Z,97587.91
2022-11-11T09:15:24.196Z,97593.31
2022-11-11T09:18:10.661Z,97597.31
2022-11-11T09:20:58.485Z,97607.13
2022-11-11T09:23:43.794Z,97607.28
2022-11-11T09:26:29.100Z,97611.28
2022-11-11T09:29:14.505Z,97608.16
2022-11-11T09:31:59.887Z,97608.69
2022-11-11T09:34:45.277Z,97602.63
2022-11-11T09:37:30.687Z,97602.63
2022-11-11T09:40:21.285Z,97611.63
2022-11-11T09:43:18.873Z,97609.66
2022-11-11T09:46:22.507Z,97607.75
2022-11-11T09:49:20.698Z,97596.31
2022-11-11T09:52:18.205Z,97599.63
2022-11-11T09:55:12.614Z,97593.28
2022-11-11T09:58:20.745Z,97593.28
2022-11-11T10:01:15.115Z,97585.97
2022-11-11T10:04:06.831Z,97582.84
2022-11-11T10:07:00.996Z,97580.88
2022-11-11T10:10:00.589Z,97581.44
2022-11-11T10:12:53.120Z,97581.72
2022-11-11T10:16:05.112Z,97583.78
2022-11-11T10:19:15.990Z,97584.97
2022-11-11T10:22:19.965Z,97588.13
2022-11-11T10:25:08.957Z,97590.03
2022-11-11T10:27:59.213Z,97587.69
2022-11-11T10:30:46.552Z,97583.97
2022-11-11T10:33:46.639Z,97585.22
2022-11-11T10:36:37.004Z,97579.44
2022-11-11T10:39:32.095Z,97587.00
2022-11-11T10:42:18.561Z,97591.41
2022-11-11T10:45:30.333Z,97587.66
2022-11-11T10:48:21.612Z,97586.44
2022-11-11T10:51:07.828Z,97588.09
2022-11-11T10:54:09.341Z,97585.47
2022-11-11T10:57:24.879Z,97588.63
2022-11-11T11:00:12.948Z,97592.50
2022-11-11T11:03:13.126Z,97591.53
2022-11-11T11:06:02.633Z,97592.75
2022-11-11T11:08:54.533Z,97586.78
2022-11-11T11:11:52.699Z,97585.53
2022-11-11T11:14:43.856Z,97590.22
2022-11-11T11:17:36.584Z,97581.91
2022-11-11T11:20:22.357Z,97589.63
2022-11-11T11:23:07.976Z,97590.84
2022-11-11T11:25:55.533Z,97588.06
2022-11-11T11:29:10.198Z,97584.28
2022-11-11T11:31:56.314Z,97576.22
2022-11-11T11:34:49.712Z,97571.22
2022-11-11T11:37:50.415Z,97569.78
2022-11-11T11:40:56.382Z,97565.88
2022-11-11T11:43:46.060Z,97572.88
2022-11-11T11:46:40.956Z,97571.31
2022-11-11T11:49:38.378Z,97579.00
2022-11-11T11:52:47.224Z,97575.16
2022-11-11T11:55:44.102Z,97582.69
2022-11-11T11:58:39.832Z,97571.72
2022-11-11T12:01:57.031Z,97574.72
2022-11-11T12:04:55.292Z,97569.44
2022-11-11T12:08:02.570Z,97577.94
2022-11-11T12:11:15.881Z,97575.25
2022-11-11T12:14:22.943Z,97578.16
2022-11-11T12:17:44.231Z,97576.81
2022-11-11T12:21:04.404Z,97571.25
2022-11-11T12:23:55.672Z,97570.00
2022-11-11T12:26:47.141Z,97569.38
2022-11-11T12:30:02.559Z,97560.34
2022-11-11T12:33:10.164Z,97567.50
2022-11-11T12:36:07.885Z,97568.94
2022-11-11T12:39:46.061Z,97559.06
2022-11-11T12:42:53.661Z,97545.38
2022-11-11T12:45:57.208Z,97549.16
2022-11-11T12:48:53.504Z,97547.13
2022-11-11T12:52:08.714Z,97547.81
2022-11-11T12:55:26.815Z,97543.81
2022-11-11T12:58:29.716Z,97543.16
2022-11-11T13:01:33.336Z,97543.00
2022-11-11T13:04:45.117Z,97539.53
2022-11-11T13:07:55.431Z,97540.91
2022-11-11T13:10:52.398Z,97540.44
2022-11-11T13:13:53.315Z,97541.25
2022-11-11T13:16:39.101Z,97540.63
2022-11-11T13:19:33.682Z,97537.50
2022-11-11T13:22:28.320Z,97530.13
2022-11-11T13:25:26.368Z,97535.44
2022-11-11T13:28:20.849Z,97538.25
2022-11-11T13:31:09.175Z,97534.63
2022-11-11T13:33:58.506Z,97536.25
2022-11-11T13:36:49.029Z,97537.91
2022-11-11T13:39:40.087Z,97531.00
2022-11-11T13:42:31.690Z,97535.91
2022-11-11T13:45:28.155Z,97541.47
2022-11-11T13:48:25.021Z,97544.09
2022-11-11T13:51:24.995Z,97539.63
2022-11-11T13:54:33.175Z,97534.09
2022-11-11T13:57:22.530Z,97530.75
2022-11-11T14:00:26.614Z,97529.03
2022-11-11T14:03:20.469Z,97530.63
2022-11-11T14:06:15.613Z,97533.47
2022-11-11T14:09:02.116Z,97529.13
2022-11-11T14:11:48.310Z,97531.38
2022-11-11T14:14:37.776Z,97542.72
2022-11-11T14:17:51.319Z,97542.19
2022-11-11T14:20:42.722Z,97550.00
2022-11-11T14:23:37.326Z,97541.50
2022-11-11T14:26:27.847Z,97538.63
2022-11-11T14:29:20.832Z,97541.34
2022-11-11T14:32:31.555Z,97541.00
2022-11-11T14:35:38.623Z,97543.09
2022-11-11T14:38:45.866Z,97543.28
2022-11-11T14:41:52.047Z,97545.97
2022-11-11T14:44:38.140Z,97549.03
2022-11-11T14:47:41.518Z,97550.31
2022-11-11T14:50:33.866Z,97556.56
2022-11-11T14:53:25.981Z,97556.88
2022-11-11T14:56:18.601Z,97560.59
2022-11-11T14:59:10.393Z,97568.47
2022-11-11T15:01:59.437Z,97558.97
2022-11-11T15:04:45.529Z,97566.13
2022-11-11T15:07:59.769Z,97562.66
2022-11-11T15:11:08.273Z,97565.59
2022-11-11T15:14:00.783Z,97568.91
2022-11-11T15:17:24.592Z,97560.91
2022-11-11T15:20:46.989Z,97568.41
2022-11-11T15:23:38.100Z,97564.13
2022-11-11T15:26:36.551Z,97563.41
2022-11-11T15:29:40.827Z,97559.41
2022-11-11T15:32:46.598Z,97551.84
2022-11-11T15:35:40.620Z,97556.38
2022-11-11T15:38:26.903Z,97564.25
2022-11-11T15:41:24.612Z,97559.16
2022-11-11T15:44:19.609Z,97564.66
2022-11-11T15:47:07.186Z,97572.81
2022-11-11T15:49:53.158Z,97581.50
2022-11-11T15:52:39.134Z,97576.28
2022-11-11T15:55:25.638Z,97569.31
2022-11-11T15:58:30.981Z,97571.53
2022-11-11T16:01:16.909Z,97583.69
2022-11-11T16:04:22.591Z,97571.25
2022-11-11T16:07:30.083Z,97562.13
2022-11-11T16:10:26.873Z,97553.03
2022-11-11T16:13:20.532Z,97555.94
2022-11-11T16:16:23.364Z,97557.88
2022-11-11T16:19:34.864Z,97553.59
2022-11-11T16:22:32.965Z,97562.69
2022-11-11T16:25:22.682Z,97555.91
2022-11-11T16:28:12.172Z,97565.84
2022-11-11T16:30:58.877Z,97566.94
2022-11-11T16:33:46.543Z,97559.91
2022-11-11T16:36:31.869Z,97559.91
2022-11-11T16:39:21.472Z,97552.75
2022-11-11T16:42:22.009Z,97561.16
2022-11-11T16:45:20.604Z,97557.72
2022-11-11T16:48:06.106Z,97554.97
2022-11-11T16:51:05.041Z,97564.47
2022-11-11T16:54:07.499Z,97555.66
2022-11-11T16:56:57.359Z,97555.81
2022-11-11T16:59:48.158Z,97566.00
2022-11-11T17:02:34.750Z,97570.25
2022-11-11T17:05:40.060Z,97571.94
2022-11-11T17:08:40.577Z,97566.84
2022-11-11T17:11:45.995Z,97568.75
2022-11-11T17:14:36.953Z,97562.00
2022-11-11T17:17:22.542Z,97572.75
2022-11-11T17:20:12.595Z,97578.94
2022-11-11T17:22:58.874Z,97581.56
2022-11-11T17:25:44.989Z,97583.34
2022-11-11T17:28:32.263Z,97581.69
2022-11-11T17:31:17.409Z,97582.09
2022-11-11T17:34:07.623Z,97578.78
2022-11-11T17:36:53.119Z,97581.81
2022-11-11T17:39:43.292Z,97586.50
2022-11-11T17:42:32.768Z,97577.78
2022-11-11T17:45:19.939Z,97578.88
2022-11-11T17:48:08.257Z,97582.72
2022-11-11T17:50:56.112Z,97582.16
2022-11-11T17:53:53.216Z,97587.69
2022-11-11T17:56:41.920Z,97582.69
2022-11-11T17:59:27.830Z,97597.28
2022-11-11T18:02:14.317Z,97593.53
2022-11-11T18:05:02.068Z,97589.09
2022-11-11T18:07:48.607Z,97592.03
2022-11-11T18:10:34.225Z,97592.72
2022-11-11T18:13:19.964Z,97596.94
2022-11-11T18:16:07.294Z,97600.97
2022-11-11T18:18:54.837Z,97598.75
2022-11-11T18:21:42.747Z,97602.56
2022-11-11T18:24:31.358Z,97606.28
2022-11-11T18:27:17.523Z,97598.56
2022-11-11T18:30:03.771Z,97602.94
2022-11-11T18:32:50.901Z,97600.34
2022-11-11T18:35:36.664Z,97600.34
2022-11-11T18:38:22.747Z,97604.50
2022-11-11T18:41:17.163Z,97586.88
2022-11-11T18:44:03.592Z,97585.25
2022-11-11T18:46:49.856Z,97591.53
2022-11-11T18:49:36.164Z,97590.47
2022-11-11T18:52:22.541Z,97596.00
2022-11-11T18:55:09.329Z,97589.69
2022-11-11T18:57:55.455Z,97599.19
2022-11-11T19:00:41.581Z,97595.03
2022-11-11T19:03:27.631Z,97595.44
2022-11-11T19:06:13.758Z,97601.50
2022-11-11T19:09:02.395Z,97596.28
2022-11-11T19:11:47.901Z,97597.09
2022-11-11T19:14:33.308Z,97606.75
2022-11-11T19:17:18.598Z,97602.19
2022-11-11T19:20:06.056Z,97603.16
2022-11-11T19:22:51.364Z,97607.81
2022-11-11T19:25:37.247Z,97603.66
2022-11-11T19:28:22.666Z,97606.78
2022-11-11T19:31:13.247Z,97605.63
2022-11-11T19:33:59.087Z,97612.19
2022-11-11T19:36:44.581Z,97618.19
2022-11-11T19:39:29.999Z,97615.56
2022-11-11T19:42:16.104Z,97620.91
2022-11-11T19:45:02.752Z,97621.09
2022-11-11T19:47:49.909Z,97626.88
2022-11-11T19:50:35.290Z,97629.66
2022-11-11T19:53:20.830Z,97627.34
2022-11-11T19:56:15.197Z,97621.84
2022-11-11T19:59:03.349Z,97628.38
2022-11-11T20:01:48.904Z,97629.09
2022-11-11T20:04:34.363Z,97630.13
2022-11-11T20:07:19.739Z,97633.53
2022-11-11T20:10:06.237Z,97635.19
2022-11-11T20:12:52.985Z,97635.28
2022-11-11T20:15:38.424Z,97636.38
2022-11-11T20:18:23.929Z,97632.38
2022-11-11T20:21:09.475Z,97645.16
2022-11-11T20:23:55.630Z,97639.56
2022-11-11T20:26:41.277Z,97645.66
2022-11-11T20:29:27.178Z,97649.91
2022-11-11T20:32:12.221Z,97654.78
2022-11-11T20:34:57.923Z,97653.94
2022-11-11T20:37:43.623Z,97652.53
2022-11-11T20:40:28.978Z,97655.19
2022-11-11T20:43:14.455Z,97651.84
2022-11-11T20:46:03.163Z,97654.97
2022-11-11T20:48:50.714Z,97659.63
2022-11-11T20:51:36.267Z,97651.66
2022-11-11T20:54:22.025Z,97653.06
2022-11-11T20:57:07.372Z,97653.06
2022-11-11T20:59:52.914Z,97645.91
2022-11-11T21:02:38.195Z,97654.47
2022-11-11T21:05:23.838Z,97654.94
2022-11-11T21:08:09.316Z,97651.34
2022-11-11T21:10:56.162Z,97647.53
2022-11-11T21:13:45.832Z,97649.56
2022-11-11T21:16:32.449Z,97646.13
2022-11-11T21:19:18.082Z,97646.00
2022-11-11T21:22:08.910Z,97657.28
2022-11-11T21:24:55.974Z,97650.28
2022-11-11T21:27:41.524Z,97650.88
2022-11-11T21:30:26.862Z,97653.22
2022-11-11T21:33:12.291Z,97648.97
2022-11-11T21:36:22.226Z,97656.81
2022-11-11T21:39:09.861Z,97648.78
2022-11-11T21:41:55.114Z,97655.13
2022-11-11T21:44:41.102Z,97651.34
2022-11-11T21:47:26.580Z,97656.69
2022-11-11T21:50:12.131Z,97654.81
2022-11-11T21:52:57.878Z,97664.09
2022-11-11T21:55:43.195Z,97660.66
2022-11-11T21:58:29.279Z,97656.16
2022-11-11T22:01:19.603Z,97659.34
2022-11-11T22:04:08.025Z,97659.47
2022-11-11T22:06:53.328Z,97654.84
2022-11-11T22:09:39.229Z,97658.53
2022-11-11T22:12:25.750Z,97656.72
2022-11-11T22:15:11.081Z,97665.50
2022-11-11T22:17:56.533Z,97659.59
2022-11-11T22:20:41.794Z,97659.13
2022-11-11T22:23:27.268Z,97664.09
2022-11-11T22:26:12.738Z,97659.47
2022-11-11T22:28:58.627Z,97657.91
2022-11-11T22:31:44.888Z,97667.88
2022-11-11T22:34:30.969Z,97665.88
2022-11-11T22:37:19.218Z,97672.63
2022-11-11T22:40:05.214Z,97667.75
2022-11-11T22:42:50.498Z,97670.81
2022-11-11T22:45:35.950Z,97674.38
2022-11-11T22:48:21.771Z,97667.84
2022-11-11T22:51:14.078Z,97676.53
2022-11-11T22:54:05.099Z,97676.41
2022-11-11T22:56:50.681Z,97680.69
2022-11-11T22:59:36.239Z,97677.00
2022-11-11T23:02:21.678Z,97671.09
2022-11-11T23:05:07.297Z,97674.28
2022-11-11T23:07:54.117Z,97681.53
2022-11-11T23:10:39.691Z,97666.91
2022-11-11T23:13:25.066Z,97669.66
2022-11-11T23:16:13.145Z,97670.00
2022-11-11T23:19:00.574Z,97667.63
2022-11-11T23:21:46.921Z,97671.44
2022-11-11T23:24:32.235Z,97675.25
2022-11-11T23:27:17.832Z,97673.56
2022-11-11T23:30:04.019Z,97672.63
2022-11-11T23:32:53.113Z,97674.75
2022-11-11T23:35:39.379Z,97665.25
2022-11-11T23:38:24.977Z,97668.72
2022-11-11T23:41:11.608Z,97665.50
2022-11-11T23:43:58.439Z,97662.78
2022-11-11T23:46:44.962Z,97664.69
2022-11-11T23:49:30.703Z,97666.94
2022-11-11T23:52:16.496Z,97661.47
2022-11-11T23:55:02.528Z,97662.78
2022-11-11T23:57:48.262Z,97659.81
